Time;durP1;ratioP1;P1;durP2;ratioP2;P2;SDS_P1;SDS_P2;PMS_P1;PMS_P2;Temp;Humidity;BMP_temperature;BMP_pressure;BME280_temperature;BME280_humidity;BME280_pressure;Samples;Min_cycle;Max_cycle;Signal;HPM_P1;HPM_P2
2021/10/06 00:01:12;;;;;;;5.50;1.73;;;;;;;11.79;60.99;99455.88;10340330;28;20062;-64
2021/10/06 00:06:13;;;;;;;5.35;1.90;;;;;;;11.87;60.63;99461.38;10342514;28;20052;-64
2021/10/06 00:11:15;;;;;;;6.82;1.73;;;;;;;11.91;60.37;99474.16;10345569;28;20054;-64
2021/10/06 00:16:18;;;;;;;5.80;1.67;;;;;;;11.93;60.27;99474.06;10350450;28;20054;-64
2021/10/06 00:21:19;;;;;;;4.65;1.50;;;;;;;11.88;60.28;99479.66;10350005;28;20060;-65
2021/10/06 00:26:21;;;;;;;7.85;1.60;;;;;;;11.95;60.05;99498.34;10350123;28;20280;-64
2021/10/06 00:31:23;;;;;;;5.60;1.70;;;;;;;11.95;60.01;99501.81;10351393;28;20060;-64
2021/10/06 00:36:25;;;;;;;7.05;1.60;;;;;;;11.97;59.93;99499.09;10349060;28;20058;-64
2021/10/06 00:41:27;;;;;;;8.32;1.60;;;;;;;12.05;59.77;99504.59;10350385;28;20046;-65
2021/10/06 00:46:28;;;;;;;5.50;1.50;;;;;;;12.07;59.75;99511.41;10350233;28;20049;-64
2021/10/06 00:51:31;;;;;;;5.72;1.65;;;;;;;12.17;59.65;99513.38;10349630;28;20902;-64
2021/10/06 00:56:33;;;;;;;6.70;1.58;;;;;;;12.27;59.40;99512.63;10348727;28;20046;-64
2021/10/06 01:01:34;;;;;;;5.85;1.73;;;;;;;12.32;59.25;99514.91;10348543;28;20064;-64
2021/10/06 01:06:36;;;;;;;7.28;1.67;;;;;;;12.17;59.19;99516.84;10348641;28;20473;-64
2021/10/06 01:11:39;;;;;;;5.28;1.50;;;;;;;12.19;59.28;99525.44;10349217;28;20128;-64
2021/10/06 01:16:41;;;;;;;5.65;1.50;;;;;;;12.22;59.01;99530.44;10348063;28;20049;-64
2021/10/06 01:21:42;;;;;;;5.82;1.63;;;;;;;12.25;58.98;99530.25;10346285;28;20084;-64
2021/10/06 01:26:45;;;;;;;4.90;1.45;;;;;;;12.28;58.77;99527.41;10345832;28;20683;-64
2021/10/06 01:31:47;;;;;;;6.75;1.63;;;;;;;12.30;58.90;99530.75;10347704;28;20060;-64
2021/10/06 01:36:52;;;;;;;4.05;1.40;;;;;;;12.22;58.84;99540.09;10346177;28;20054;-64
2021/10/06 01:41:53;;;;;;;5.80;1.40;;;;;;;12.16;58.95;99546.63;10348472;28;20549;-64
2021/10/06 01:46:55;;;;;;;9.15;1.40;;;;;;;12.16;58.98;99557.09;10347125;28;20056;-64
2021/10/06 01:51:57;;;;;;;7.25;1.70;;;;;;;12.15;58.60;99556.25;10337339;28;20061;-64
2021/10/06 01:56:58;;;;;;;7.57;1.52;;;;;;;12.09;58.47;99553.25;10344314;28;20045;-64
2021/10/06 02:02:00;;;;;;;3.45;1.30;;;;;;;12.11;58.28;99565.28;10345744;28;20056;-64
2021/10/06 02:07:02;;;;;;;4.90;1.40;;;;;;;12.08;58.34;99559.44;10352286;28;20128;-64
2021/10/06 02:12:04;;;;;;;6.28;1.60;;;;;;;12.07;58.28;99557.75;10352937;28;20066;-64
2021/10/06 02:17:06;;;;;;;7.32;1.55;;;;;;;12.01;58.41;99552.94;10353415;28;20129;-64
2021/10/06 02:22:08;;;;;;;5.95;1.60;;;;;;;11.98;58.37;99553.19;10352153;28;20057;-64
2021/10/06 02:27:09;;;;;;;6.22;1.70;;;;;;;11.87;58.51;99564.44;10352544;28;20093;-64
2021/10/06 02:32:11;;;;;;;5.05;1.85;;;;;;;11.84;58.32;99564.66;10351787;28;20407;-64
2021/10/06 02:37:12;;;;;;;5.55;1.40;;;;;;;11.75;58.52;99573.16;10349924;28;20046;-64
2021/10/06 02:42:14;;;;;;;5.07;1.50;;;;;;;11.71;58.75;99570.84;10353142;28;20414;-64
2021/10/06 02:47:16;;;;;;;7.35;1.60;;;;;;;11.79;58.66;99573.75;10352076;28;20056;-64
2021/10/06 02:52:18;;;;;;;5.03;1.40;;;;;;;11.88;58.45;99573.97;10351652;28;20505;-64
2021/10/06 02:57:19;;;;;;;4.93;1.45;;;;;;;12.03;58.33;99574.66;10353096;28;20046;-64
2021/10/06 03:02:21;;;;;;;5.63;1.40;;;;;;;12.07;58.15;99578.72;10347871;28;20426;-64
2021/10/06 03:07:23;;;;;;;7.65;1.80;;;;;;;11.99;58.20;99586.28;10348313;28;20135;-65
2021/10/06 03:12:24;;;;;;;5.78;1.55;;;;;;;12.03;58.13;99590.38;10343868;28;20060;-65
2021/10/06 03:17:26;;;;;;;6.95;1.50;;;;;;;11.98;58.23;99588.09;10344687;28;20060;-64
2021/10/06 03:22:27;;;;;;;6.22;1.92;;;;;;;11.83;58.55;99585.69;10343984;28;20064;-64
2021/10/06 03:27:29;;;;;;;4.95;1.60;;;;;;;11.82;58.58;99591.91;10343675;28;20045;-64
2021/10/06 03:32:31;;;;;;;6.80;1.90;;;;;;;11.76;58.74;99593.19;10344937;28;20123;-64
2021/10/06 03:37:34;;;;;;;6.28;1.90;;;;;;;11.53;58.96;99595.69;10343853;28;20049;-64
2021/10/06 03:42:35;;;;;;;5.25;1.70;;;;;;;11.33;59.32;99607.53;10344351;28;20042;-64
2021/10/06 03:47:38;;;;;;;7.10;1.80;;;;;;;11.28;59.33;99610.47;10344165;28;20056;-64
2021/10/06 03:52:40;;;;;;;7.20;1.60;;;;;;;11.19;59.54;99611.06;10342924;28;20052;-64
2021/10/06 03:57:42;;;;;;;7.28;1.80;;;;;;;11.11;59.82;99612.56;10342122;28;20044;-64
2021/10/06 04:02:43;;;;;;;7.60;1.70;;;;;;;11.04;59.88;99596.41;10342052;28;21507;-64
2021/10/06 04:07:45;;;;;;;8.63;2.25;;;;;;;10.99;60.03;99608.94;10342586;28;20133;-64
2021/10/06 04:12:46;;;;;;;5.82;1.90;;;;;;;10.87;60.35;99612.34;10341884;28;20537;-64
2021/10/06 04:17:48;;;;;;;7.65;1.58;;;;;;;10.83;60.49;99618.72;10338924;28;20212;-64
2021/10/06 04:22:50;;;;;;;10.95;2.03;;;;;;;10.81;60.53;99628.44;10342269;28;20061;-65
2021/10/06 04:27:51;;;;;;;7.25;1.90;;;;;;;10.75;60.67;99631.47;10342225;28;20053;-64
2021/10/06 04:32:53;;;;;;;8.98;1.80;;;;;;;10.75;60.46;99641.94;10342993;28;20053;-65
2021/10/06 04:37:55;;;;;;;9.38;2.10;;;;;;;10.73;60.63;99651.66;10341028;28;20057;-65
2021/10/06 04:42:57;;;;;;;10.35;1.83;;;;;;;10.74;60.35;99645.50;10343059;28;20062;-65
2021/10/06 04:47:59;;;;;;;8.55;1.73;;;;;;;10.74;60.44;99640.28;10343931;28;20494;-65
2021/10/06 04:53:03;;;;;;;7.65;1.88;;;;;;;10.69;60.41;99642.34;10343273;28;20570;-64
2021/10/06 04:58:05;;;;;;;9.75;1.88;;;;;;;10.71;60.38;99645.69;10345234;28;20112;-64
2021/10/06 05:03:12;;;;;;;9.45;1.80;;;;;;;10.80;60.53;99644.25;10350712;28;20056;-65
2021/10/06 05:08:14;;;;;;;9.18;1.70;;;;;;;10.91;60.18;99653.06;10350177;28;20062;-64
2021/10/06 05:13:16;;;;;;;6.45;2.00;;;;;;;11.03;60.02;99664.53;10351119;28;20054;-65
2021/10/06 05:18:18;;;;;;;7.57;1.70;;;;;;;10.97;60.12;99665.75;10350165;28;20588;-65
2021/10/06 05:23:19;;;;;;;5.93;1.50;;;;;;;10.93;60.38;99690.44;10349103;28;20056;-65
2021/10/06 05:28:21;;;;;;;6.28;1.83;;;;;;;11.03;60.09;99688.09;10349941;28;20050;-65
2021/10/06 05:33:23;;;;;;;7.28;1.98;;;;;;;10.91;60.27;99683.66;10348369;28;20136;-65
2021/10/06 05:38:25;;;;;;;7.35;2.17;;;;;;;10.70;60.56;99677.19;10349088;28;20512;-65
2021/10/06 05:43:27;;;;;;;8.75;2.10;;;;;;;10.60;61.11;99668.25;10348552;28;20052;-65
2021/10/06 05:48:28;;;;;;;5.95;1.70;;;;;;;10.54;61.52;99685.19;10348450;28;20083;-65
2021/10/06 05:53:30;;;;;;;6.72;1.88;;;;;;;10.61;61.13;99688.22;10349698;28;20049;-65
2021/10/06 05:58:32;;;;;;;8.82;1.90;;;;;;;10.71;61.04;99711.06;10349127;28;20046;-65
2021/10/06 06:03:33;;;;;;;7.72;1.83;;;;;;;10.93;60.35;99718.41;10348304;28;20046;-64
2021/10/06 06:08:36;;;;;;;11.07;2.10;;;;;;;11.07;60.28;99724.44;10348114;28;20316;-65
2021/10/06 06:13:37;;;;;;;6.07;1.85;;;;;;;11.06;60.15;99719.31;10348124;28;20502;-65
2021/10/06 06:18:39;;;;;;;8.55;1.88;;;;;;;11.12;60.29;99725.00;10347881;28;20045;-65
2021/10/06 06:23:41;;;;;;;10.32;2.13;;;;;;;11.26;59.80;99732.78;10347026;28;20046;-65
2021/10/06 06:28:42;;;;;;;9.82;2.08;;;;;;;11.46;59.32;99738.50;10347109;28;20046;-65
2021/10/06 06:33:45;;;;;;;7.47;1.90;;;;;;;11.66;58.81;99730.13;10347126;28;20056;-65
2021/10/06 06:38:47;;;;;;;5.97;1.90;;;;;;;11.73;58.76;99741.88;10361774;28;20050;-66
2021/10/06 06:43:48;;;;;;;8.50;2.10;;;;;;;11.88;58.42;99732.97;10346954;28;20506;-65
2021/10/06 06:48:50;;;;;;;7.28;1.90;;;;;;;11.93;58.20;99744.81;10346993;28;20054;-65
2021/10/06 06:53:52;;;;;;;10.38;2.00;;;;;;;11.91;58.59;99753.72;10346014;28;20050;-65
2021/10/06 06:58:54;;;;;;;11.38;1.73;;;;;;;11.88;58.86;99744.31;10346176;28;20148;-65
2021/10/06 07:03:55;;;;;;;8.23;1.83;;;;;;;11.80;58.54;99738.75;10346772;28;20387;-65
2021/10/06 07:08:57;;;;;;;5.57;1.80;;;;;;;11.77;58.29;99745.94;10344650;28;20050;-65
2021/10/06 07:13:59;;;;;;;5.05;1.55;;;;;;;11.84;58.04;99750.69;10346070;28;20113;-65
2021/10/06 07:19:00;;;;;;;5.40;1.60;;;;;;;11.76;57.99;99739.06;10346507;28;20304;-65
2021/10/06 07:24:02;;;;;;;6.35;1.70;;;;;;;11.66;58.12;99745.84;10344083;28;20042;-65
2021/10/06 07:29:04;;;;;;;5.70;1.70;;;;;;;11.71;57.74;99754.22;10344995;28;20969;-65
2021/10/06 07:34:06;;;;;;;4.05;1.35;;;;;;;11.96;56.91;99764.75;10345226;28;20401;-65
2021/10/06 07:39:08;;;;;;;7.85;2.10;;;;;;;12.59;56.05;99772.59;10344435;28;20052;-65
2021/10/06 07:44:10;;;;;;;7.05;1.80;;;;;;;13.29;54.29;99771.00;10343745;28;20677;-64
2021/10/06 07:49:12;;;;;;;7.00;1.73;;;;;;;13.66;53.07;99788.34;10344616;28;20062;-66
2021/10/06 07:54:14;;;;;;;7.43;1.60;;;;;;;13.65;52.88;99786.69;10343562;28;20050;-65
2021/10/06 07:59:15;;;;;;;5.93;1.75;;;;;;;13.77;51.98;99785.78;10344859;28;20057;-65
2021/10/06 08:04:17;;;;;;;7.07;1.58;;;;;;;14.06;51.42;99800.19;10345775;28;20056;-65
2021/10/06 08:09:19;;;;;;;6.88;1.80;;;;;;;13.88;51.08;99801.56;10344352;28;20108;-65
2021/10/06 08:14:21;;;;;;;5.20;1.55;;;;;;;14.40;49.68;99801.91;10359427;28;20056;-65
2021/10/06 08:19:23;;;;;;;6.22;1.45;;;;;;;14.87;48.67;99807.91;10343531;28;20128;-65
2021/10/06 08:24:24;;;;;;;5.22;1.50;;;;;;;15.26;47.68;99821.38;10344636;28;20050;-65
2021/10/06 08:29:26;;;;;;;8.10;1.73;;;;;;;15.83;46.46;99820.22;10343641;28;20092;-65
2021/10/06 08:34:28;;;;;;;8.35;1.80;;;;;;;16.09;45.54;99819.72;10348105;28;20049;-65
2021/10/06 08:39:30;;;;;;;4.28;1.40;;;;;;;16.03;45.31;99822.03;10351560;28;20050;-65
2021/10/06 08:44:33;;;;;;;5.28;1.50;;;;;;;15.53;45.79;99823.56;10347149;28;20442;-71
2021/10/06 08:49:34;;;;;;;5.68;1.58;;;;;;;15.30;45.81;99827.22;10339873;28;20048;-71
2021/10/06 08:54:36;;;;;;;7.47;1.88;;;;;;;15.15;46.60;99831.06;10350174;28;20137;-71
2021/10/06 08:59:38;;;;;;;6.65;1.58;;;;;;;14.87;46.64;99836.88;10349194;28;20054;-71
2021/10/06 09:04:40;;;;;;;6.68;1.52;;;;;;;14.43;47.79;99845.56;10341549;28;20050;-71
2021/10/06 09:09:42;;;;;;;6.22;1.50;;;;;;;14.18;48.04;99857.13;10346909;28;20434;-71
2021/10/06 09:14:46;;;;;;;5.82;1.42;;;;;;;14.56;47.73;99862.94;10347227;28;20046;-71
2021/10/06 09:19:56;;;;;;;6.32;1.60;;;;;;;14.73;47.34;99864.28;10347433;28;20705;-70
2021/10/06 09:25:02;;;;;;;6.90;1.75;;;;;;;14.51;49.24;99866.91;10347009;28;20092;-70
2021/10/06 09:30:13;;;;;;;6.28;1.80;;;;;;;14.24;50.40;99885.59;10339979;28;20061;-71
2021/10/06 09:35:17;;;;;;;8.60;1.80;;;;;;;14.31;50.58;99881.53;10346845;28;20128;-71
2021/10/06 09:40:23;;;;;;;7.15;1.77;;;;;;;14.38;50.53;99895.91;10346978;28;20161;-71
2021/10/06 09:45:35;;;;;;;7.00;1.63;;;;;;;14.15;51.54;99894.16;10346121;28;20056;-71
2021/10/06 09:50:49;;;;;;;5.47;1.60;;;;;;;13.83;52.71;99882.56;10345268;28;20560;-71
2021/10/06 09:55:52;;;;;;;8.48;1.75;;;;;;;13.76;53.18;99891.84;10345424;28;20112;-71
2021/10/06 10:00:56;;;;;;;6.43;1.60;;;;;;;13.48;54.15;99906.16;10346986;28;20141;-71
2021/10/06 10:05:58;;;;;;;6.63;1.63;;;;;;;13.26;54.94;99905.16;10338810;28;20056;-70
2021/10/06 10:11:00;;;;;;;7.68;1.90;;;;;;;13.12;55.80;99900.03;10304708;28;20149;-71
2021/10/06 10:16:03;;;;;;;8.27;1.55;;;;;;;13.15;56.15;99905.09;10306017;28;20165;-71
2021/10/06 10:21:05;;;;;;;4.40;1.50;;;;;;;13.40;56.30;99910.25;10305973;28;20170;-70
2021/10/06 10:26:09;;;;;;;7.70;1.83;;;;;;;13.70;56.08;99922.06;10306740;28;20050;-70
2021/10/06 10:31:14;;;;;;;7.07;2.00;;;;;;;13.99;56.12;99914.66;10306314;28;20050;-70
2021/10/06 10:36:37;;;;;;;5.57;1.80;;;;;;;14.12;56.40;99911.97;10303717;28;20233;-71
2021/10/06 10:41:52;;;;;;;6.78;2.03;;;;;;;14.11;56.18;99919.00;10304564;28;20558;-71
2021/10/06 10:47:04;;;;;;;6.90;1.90;;;;;;;14.17;55.37;99917.72;10304906;28;20056;-71
2021/10/06 10:52:06;;;;;;;7.07;1.90;;;;;;;14.28;55.83;99915.97;10301816;28;20099;-71
2021/10/06 10:57:08;;;;;;;7.53;1.77;;;;;;;14.63;55.43;99904.59;10304000;28;20548;-72
2021/10/06 11:02:34;;;;;;;7.05;1.70;;;;;;;14.47;55.84;99912.78;10304548;28;20058;-72
2021/10/06 11:07:52;;;;;;;6.80;1.60;;;;;;;14.26;54.53;99906.50;10302870;28;20097;-72
2021/10/06 11:12:57;;;;;;;4.78;1.40;;;;;;;14.70;53.54;99911.03;10304316;28;20137;-72
2021/10/06 11:18:21;;;;;;;6.97;1.95;;;;;;;15.25;53.23;99905.78;10302731;28;20050;-72
2021/10/06 11:23:31;;;;;;;4.03;1.33;;;;;;;15.36;50.52;99911.03;10302508;28;20054;-72
2021/10/06 11:28:43;;;;;;;4.85;1.40;;;;;;;15.04;51.18;99920.66;10300431;28;20137;-71
2021/10/06 11:33:45;;;;;;;8.82;1.70;;;;;;;15.08;51.75;99917.63;10295183;28;20061;-72
2021/10/06 11:38:54;;;;;;;7.03;1.60;;;;;;;15.26;51.06;99926.75;10303510;28;20054;-72
2021/10/06 11:43:56;;;;;;;5.28;1.50;;;;;;;15.38;50.91;99924.94;10303735;28;20058;-71
2021/10/06 11:48:59;;;;;;;5.95;1.73;;;;;;;15.19;51.14;99928.19;10316443;28;20050;-72
2021/10/06 11:54:01;;;;;;;4.72;1.55;;;;;;;15.03;51.48;99930.34;10315741;28;20343;-71
2021/10/06 11:59:15;;;;;;;4.20;1.45;;;;;;;15.12;51.09;99944.59;10303177;28;20057;-72
2021/10/06 12:04:18;;;;;;;4.47;1.30;;;;;;;15.04;51.49;99936.47;10297448;28;20046;-72
2021/10/06 12:09:20;;;;;;;4.85;1.50;;;;;;;14.86;51.67;99943.97;10300378;28;20478;-72
2021/10/06 12:14:33;;;;;;;6.32;1.63;;;;;;;14.90;52.24;99955.13;10298982;28;20050;-72
2021/10/06 12:19:35;;;;;;;5.20;1.50;;;;;;;14.69;52.50;99956.75;10300327;28;20050;-71
2021/10/06 12:24:39;;;;;;;7.85;1.60;;;;;;;14.42;53.47;99962.28;10300877;28;21037;-71
2021/10/06 12:29:41;;;;;;;5.07;1.38;;;;;;;14.57;53.11;99961.19;10300741;28;20161;-72
2021/10/06 12:34:44;;;;;;;6.22;1.50;;;;;;;14.71;52.68;99966.22;10302045;28;20060;-72
2021/10/06 12:39:46;;;;;;;6.38;1.52;;;;;;;14.71;53.49;99970.66;10302189;28;20054;-71
2021/10/06 12:44:50;;;;;;;5.88;1.40;;;;;;;14.82;53.70;99960.97;10301146;28;20051;-71
2021/10/06 12:49:54;;;;;;;4.10;1.40;;;;;;;14.95;52.37;99956.44;10302364;28;20449;-72
2021/10/06 12:55:08;;;;;;;4.28;1.48;;;;;;;14.90;51.54;99963.03;10299927;28;20521;-71
2021/10/06 13:00:21;;;;;;;4.57;1.40;;;;;;;14.42;51.93;99971.03;10300219;28;20539;-71
2021/10/06 13:05:27;;;;;;;3.38;1.20;;;;;;;14.46;51.84;99967.22;10301545;28;20050;-71
2021/10/06 13:10:28;;;;;;;4.45;1.20;;;;;;;14.82;51.66;99966.22;10300400;28;20117;-71
2021/10/06 13:15:30;;;;;;;2.28;1.08;;;;;;;14.79;51.44;99971.75;10298779;28;20054;-71
2021/10/06 13:20:32;;;;;;;3.42;1.27;;;;;;;15.10;51.64;99973.66;10304499;28;20046;-71
2021/10/06 13:25:33;;;;;;;3.75;1.13;;;;;;;15.41;50.15;99970.31;10308457;28;20042;-72
2021/10/06 13:30:38;;;;;;;3.95;1.15;;;;;;;15.41;49.07;99972.13;10307671;28;20042;-71
2021/10/06 13:35:40;;;;;;;3.08;1.08;;;;;;;15.58;48.76;99979.56;10308159;28;20610;-70
2021/10/06 13:40:42;;;;;;;3.67;1.30;;;;;;;15.74;48.12;99980.03;10306023;28;20050;-71
2021/10/06 13:45:43;;;;;;;4.30;1.30;;;;;;;15.61;48.50;99981.97;10306497;28;20336;-71
2021/10/06 13:50:45;;;;;;;1.98;1.00;;;;;;;15.27;48.03;99988.19;10308683;28;20054;-71
2021/10/06 13:55:47;;;;;;;2.72;1.15;;;;;;;15.15;49.05;99991.75;10305175;28;20084;-72
2021/10/06 14:00:50;;;;;;;2.60;1.08;;;;;;;15.07;48.86;99991.53;10307009;28;20124;-71
2021/10/06 14:05:52;;;;;;;4.25;1.20;;;;;;;15.04;48.69;100004.94;10307361;28;20089;-72
2021/10/06 14:10:54;;;;;;;3.15;1.10;;;;;;;14.98;49.02;99997.50;10306686;28;20086;-71
2021/10/06 14:15:57;;;;;;;4.15;1.15;;;;;;;14.93;48.91;100012.81;10307344;28;20415;-71
2021/10/06 14:20:59;;;;;;;2.63;1.17;;;;;;;15.03;48.46;100016.41;10306653;28;20089;-72
2021/10/06 14:26:01;;;;;;;2.05;0.90;;;;;;;14.96;47.89;100021.31;10306144;28;20046;-71
2021/10/06 14:31:03;;;;;;;1.55;0.98;;;;;;;15.17;47.93;100032.00;10320782;28;20141;-72
2021/10/06 14:36:04;;;;;;;4.35;1.02;;;;;;;15.16;48.33;100035.59;10305922;28;20560;-72
2021/10/06 14:41:06;;;;;;;3.15;1.20;;;;;;;15.18;47.95;100039.81;10304419;28;20418;-72
2021/10/06 14:46:08;;;;;;;1.98;0.90;;;;;;;14.94;48.43;100043.47;10306122;28;20050;-71
2021/10/06 14:51:10;;;;;;;2.90;1.00;;;;;;;14.85;49.05;100049.41;10306131;28;20056;-72
2021/10/06 14:56:13;;;;;;;3.08;1.10;;;;;;;14.88;48.97;100044.75;10303183;28;20145;-72
2021/10/06 15:01:15;;;;;;;3.10;0.90;;;;;;;14.97;49.21;100054.59;10304584;28;20317;-72
2021/10/06 15:06:17;;;;;;;1.88;0.80;;;;;;;15.03;49.26;100061.19;10304406;28;20411;-72
2021/10/06 15:11:19;;;;;;;4.68;1.05;;;;;;;14.90;49.22;100069.19;10319431;28;20046;-72
2021/10/06 15:16:20;;;;;;;5.40;1.25;;;;;;;14.85;49.33;100068.69;10319583;28;20061;-72
2021/10/06 15:21:22;;;;;;;4.50;1.10;;;;;;;14.65;49.65;100077.25;10303344;28;20210;-71
2021/10/06 15:26:24;;;;;;;3.08;1.10;;;;;;;14.53;49.98;100075.53;10302062;28;20166;-72
2021/10/06 15:31:26;;;;;;;2.05;1.02;;;;;;;14.49;50.29;100072.25;10303815;28;20076;-72
2021/10/06 15:36:28;;;;;;;2.28;1.02;;;;;;;14.36;50.68;100075.88;10303728;28;20129;-72
2021/10/06 15:41:30;;;;;;;3.15;1.10;;;;;;;14.31;50.73;100078.84;10304203;28;20057;-72
2021/10/06 15:46:32;;;;;;;2.78;1.02;;;;;;;14.24;51.14;100082.03;10303754;28;20066;-73
2021/10/06 15:51:38;;;;;;;2.28;0.90;;;;;;;14.20;51.15;100097.22;10303351;28;20418;-72
2021/10/06 15:56:41;;;;;;;3.92;1.73;;;;;;;14.35;51.15;100093.44;10301207;28;20495;-73
2021/10/06 16:01:44;;;;;;;3.80;1.20;;;;;;;14.32;51.09;100090.22;10303477;28;20054;-73
2021/10/06 16:06:47;;;;;;;4.85;1.10;;;;;;;14.33;51.33;100107.69;10302996;28;20060;-73
2021/10/06 16:11:49;;;;;;;4.25;1.30;;;;;;;14.33;51.34;100108.50;10315652;28;20116;-73
2021/10/06 16:16:51;;;;;;;2.17;0.98;;;;;;;14.24;51.44;100113.59;10297482;28;20545;-72
2021/10/06 16:21:53;;;;;;;1.85;1.00;;;;;;;14.06;51.80;100128.91;10297009;28;20058;-73
2021/10/06 16:26:55;;;;;;;3.55;1.00;;;;;;;14.03;51.96;100134.38;10301789;28;20054;-72
2021/10/06 16:31:56;;;;;;;2.47;0.90;;;;;;;13.85;52.24;100146.19;10301368;28;20054;-73
2021/10/06 16:36:58;;;;;;;2.47;1.45;;;;;;;13.67;52.91;100157.97;10296979;28;20688;-72
2021/10/06 16:42:00;;;;;;;2.53;0.93;;;;;;;13.62;53.75;100168.81;10301678;28;20061;-72
2021/10/06 16:47:15;;;;;;;4.95;3.80;;;;;;;13.48;54.52;100176.78;10301053;28;20137;-72
2021/10/06 16:52:17;;;;;;;4.53;2.25;;;;;;;13.35;54.52;100178.50;10300912;28;20502;-72
2021/10/06 16:57:19;;;;;;;2.22;1.25;;;;;;;13.36;54.78;100176.72;10307804;28;20478;-72
2021/10/06 17:02:21;;;;;;;3.28;1.40;;;;;;;13.34;54.81;100186.50;10307363;28;20081;-72
2021/10/06 17:07:25;;;;;;;4.28;1.30;;;;;;;13.26;54.79;100201.94;10308145;28;20513;-72
2021/10/06 17:12:27;;;;;;;3.60;1.70;;;;;;;13.20;55.18;100207.59;10308126;28;20145;-73
2021/10/06 17:17:40;;;;;;;2.80;1.50;;;;;;;13.20;55.34;100218.09;10306907;28;20462;-73
2021/10/06 17:22:43;;;;;;;7.43;2.25;;;;;;;13.23;55.13;100221.34;10307511;28;20050;-73
2021/10/06 17:27:45;;;;;;;2.00;1.20;;;;;;;13.21;55.37;100218.00;10307245;28;20064;-73
2021/10/06 17:32:47;;;;;;;3.33;1.30;;;;;;;13.31;55.20;100226.94;10306090;28;20057;-72
2021/10/06 17:37:50;;;;;;;2.65;1.15;;;;;;;13.31;55.17;100237.44;10305748;28;20056;-67
2021/10/06 17:42:55;;;;;;;3.17;1.30;;;;;;;13.31;55.40;100240.06;10307146;28;20422;-67
2021/10/06 17:47:57;;;;;;;2.67;1.33;;;;;;;13.25;55.69;100250.16;10306462;28;20062;-67
2021/10/06 17:53:02;;;;;;;3.63;1.70;;;;;;;13.17;56.79;100255.09;10306463;28;20431;-67
2021/10/06 17:58:12;;;;;;;3.92;1.40;;;;;;;13.06;57.23;100260.19;10307016;28;20768;-67
2021/10/06 18:03:14;;;;;;;2.90;1.20;;;;;;;13.09;57.58;100262.63;10304770;28;20069;-67
2021/10/06 18:08:15;;;;;;;4.78;1.40;;;;;;;13.07;58.01;100269.75;10306245;28;20418;-67
2021/10/06 18:13:18;;;;;;;2.63;1.30;;;;;;;13.06;58.26;100276.78;10306272;28;20474;-66
2021/10/06 18:18:20;;;;;;;4.78;1.40;;;;;;;13.03;58.33;100284.84;10307012;28;20073;-67
2021/10/06 18:23:22;;;;;;;4.05;1.67;;;;;;;12.97;58.73;100295.75;10303766;28;20061;-67
2021/10/06 18:28:39;;;;;;;2.10;1.20;;;;;;;12.89;58.67;100300.63;10318879;28;20395;-68
2021/10/06 18:33:41;;;;;;;4.82;1.30;;;;;;;12.87;58.58;100308.63;10306689;28;20097;-67
2021/10/06 18:38:43;;;;;;;3.08;1.20;;;;;;;12.83;58.77;100309.75;10306422;28;20133;-66
2021/10/06 18:43:46;;;;;;;2.97;1.58;;;;;;;12.77;59.29;100319.78;10305591;28;20489;-67
2021/10/06 18:48:49;;;;;;;5.13;1.60;;;;;;;12.72;59.35;100322.69;10305526;28;20133;-67
2021/10/06 18:53:50;;;;;;;3.10;1.42;;;;;;;12.69;59.62;100328.13;10304831;28;20085;-67
2021/10/06 18:58:55;;;;;;;3.28;1.30;;;;;;;12.63;59.97;100343.41;10319658;28;20867;-66
2021/10/06 19:03:58;;;;;;;3.85;1.50;;;;;;;12.62;60.10;100342.56;10318505;28;20058;-67
2021/10/06 19:09:00;;;;;;;5.45;1.50;;;;;;;12.59;60.34;100345.41;10305300;28;20658;-67
2021/10/06 19:14:02;;;;;;;4.95;1.48;;;;;;;12.58;60.90;100358.59;10304831;28;20054;-66
2021/10/06 19:19:04;;;;;;;2.42;1.30;;;;;;;12.53;61.45;100353.63;10304109;28;20068;-67
2021/10/06 19:24:06;;;;;;;3.85;1.40;;;;;;;12.50;61.61;100369.56;10304001;28;20058;-67
2021/10/06 19:29:08;;;;;;;2.92;1.27;;;;;;;12.47;61.86;100376.78;10303771;28;20592;-66
2021/10/06 19:34:10;;;;;;;3.42;1.30;;;;;;;12.40;61.99;100371.03;10304543;28;20070;-67
2021/10/06 19:39:12;;;;;;;3.92;1.70;;;;;;;12.43;62.40;100388.38;10304279;28;20050;-66
2021/10/06 19:44:13;;;;;;;2.38;1.40;;;;;;;12.45;62.23;100394.38;10303177;28;20050;-66
2021/10/06 19:49:16;;;;;;;3.67;1.38;;;;;;;12.42;62.19;100400.66;10304562;28;20074;-67
2021/10/06 19:54:20;;;;;;;2.80;1.30;;;;;;;12.41;62.50;100406.84;10302016;28;20527;-67
2021/10/06 19:59:21;;;;;;;2.60;1.33;;;;;;;12.41;62.66;100408.63;10302879;28;20057;-67
2021/10/06 20:04:23;;;;;;;4.10;1.30;;;;;;;12.40;62.79;100414.78;10299972;28;20498;-67
2021/10/06 20:09:25;;;;;;;2.85;1.30;;;;;;;12.34;63.00;100405.50;10288096;28;20065;-67
2021/10/06 20:14:26;;;;;;;2.95;1.45;;;;;;;12.16;63.40;100417.06;10302444;28;20050;-67
2021/10/06 20:19:28;;;;;;;3.22;1.50;;;;;;;12.25;63.53;100407.81;10303924;28;20345;-66
2021/10/06 20:24:30;;;;;;;2.75;1.27;;;;;;;12.20;63.40;100417.72;10317269;28;20112;-66
2021/10/06 20:29:32;;;;;;;2.47;1.33;;;;;;;12.18;63.31;100416.97;10306762;28;20398;-66
2021/10/06 20:39:55;;;;;;;;;;;;;;;11.80;64.49;100429.66;10310734;28;20506;-67
2021/10/06 20:45:00;;;;;;;2.80;1.40;;;;;;;12.09;63.62;100420.97;10309079;28;20020;-67
2021/10/06 20:50:02;;;;;;;2.72;1.40;;;;;;;12.06;63.68;100426.41;10309313;28;20050;-66
2021/10/06 20:55:04;;;;;;;2.25;1.50;;;;;;;12.06;63.76;100431.63;10309576;28;20057;-67
2021/10/06 21:00:07;;;;;;;3.42;1.60;;;;;;;12.03;63.84;100427.41;10310042;28;20248;-66
2021/10/06 21:05:10;;;;;;;4.80;1.88;;;;;;;11.87;64.38;100436.22;10309674;28;20046;-67
2021/10/06 21:10:12;;;;;;;2.95;1.52;;;;;;;11.90;64.31;100443.94;10306879;28;20061;-66
2021/10/06 21:15:14;;;;;;;10.95;2.10;;;;;;;11.84;64.19;100446.91;10309082;28;20133;-67
2021/10/06 21:20:15;;;;;;;5.95;1.90;;;;;;;11.85;64.43;100443.34;10309366;28;20141;-67
2021/10/06 21:25:18;;;;;;;3.53;1.73;;;;;;;11.83;64.64;100445.19;10309532;28;20068;-66
2021/10/06 21:30:19;;;;;;;3.15;1.63;;;;;;;11.82;64.47;100443.53;10308851;28;20051;-67
2021/10/06 21:35:21;;;;;;;4.72;1.80;;;;;;;11.95;64.36;100447.13;10309111;28;20069;-66
2021/10/06 21:40:23;;;;;;;4.72;1.90;;;;;;;11.85;64.63;100459.91;10307109;28;20042;-66
2021/10/06 21:45:25;;;;;;;4.32;2.00;;;;;;;11.89;64.67;100452.72;10308517;28;20068;-66
2021/10/06 21:50:27;;;;;;;4.13;1.98;;;;;;;11.83;64.71;100460.94;10308385;28;20042;-66
2021/10/06 21:55:29;;;;;;;4.10;1.95;;;;;;;11.84;64.79;100468.72;10322948;28;20060;-66
2021/10/06 22:00:37;;;;;;;4.72;2.17;;;;;;;11.95;64.57;100463.69;10308356;28;20133;-66
2021/10/06 22:05:39;;;;;;;6.40;2.10;;;;;;;11.85;64.77;100472.16;10307154;28;20158;-66
2021/10/06 22:10:42;;;;;;;4.93;2.50;;;;;;;11.78;65.05;100465.59;10307745;28;20054;-66
2021/10/06 22:15:45;;;;;;;5.00;2.40;;;;;;;11.74;65.01;100471.94;10319768;28;20053;-66
2021/10/06 22:20:47;;;;;;;6.05;2.42;;;;;;;11.81;65.11;100481.13;10305987;28;20391;-66
2021/10/06 22:25:50;;;;;;;4.30;2.00;;;;;;;11.81;65.24;100491.63;10305526;28;20054;-66
2021/10/06 22:30:52;;;;;;;4.45;2.10;;;;;;;11.72;65.52;100492.97;10301971;28;20050;-66
2021/10/06 22:35:53;;;;;;;5.00;2.13;;;;;;;11.75;65.20;100497.19;10305892;28;20046;-66
2021/10/06 22:40:55;;;;;;;4.00;1.90;;;;;;;11.87;64.80;100501.75;10304650;28;20478;-65
2021/10/06 22:45:57;;;;;;;4.85;2.28;;;;;;;11.89;64.80;100503.38;10305374;28;20050;-66
2021/10/06 22:50:58;;;;;;;4.28;1.83;;;;;;;11.92;64.71;100510.22;10303596;28;20117;-66
2021/10/06 22:56:00;;;;;;;5.63;1.85;;;;;;;11.93;64.68;100504.03;10303811;28;20050;-66
2021/10/06 23:01:02;;;;;;;4.07;2.03;;;;;;;11.86;64.70;100518.44;10302955;28;20456;-66
2021/10/06 23:06:07;;;;;;;3.63;2.10;;;;;;;11.78;65.08;100515.38;10300864;28;20046;-66
2021/10/06 23:11:09;;;;;;;4.47;2.20;;;;;;;11.72;65.28;100516.56;10302988;28;20482;-65
2021/10/06 23:16:10;;;;;;;4.13;2.03;;;;;;;11.73;65.23;100533.97;10302294;28;20058;-66
2021/10/06 23:21:17;;;;;;;4.38;2.10;;;;;;;11.75;65.27;100524.25;10304281;28;20054;-66
2021/10/06 23:26:18;;;;;;;4.13;2.10;;;;;;;11.66;65.43;100521.31;10303566;28;20129;-66